Time,TemperatureF,DewpointF,PressureIn,WindDirection,WindDirectionDegrees,WindSpeedMPH,WindSpeedGustMPH,Humidity,HourlyPrecipIn,Conditions,Clouds,dailyrainin,SolarRadiationWatts/m^2,SoftwareType,DateUTC
2013-04-10 00:03:00,72.0,45.0,-100.00,East,88,3.0,10.0,38,0.00,,,0.00,93.000000,,2013-04-10 00:03:00,
2013-04-10 00:11:00,70.0,47.0,-100.00,West,281,1.0,5.0,44,0.00,,,-99.99,23.000000,,2013-04-10 00:11:00,
2013-04-10 00:43:00,70.0,47.0,-100.00,West,281,1.0,5.0,44,0.00,,,-99.99,23.000000,,2013-04-10 00:43:00,
2013-04-10 00:53:00,70.0,47.0,-100.00,West,281,1.0,5.0,44,0.00,,,-99.99,23.000000,,2013-04-10 00:53:00,
2013-04-10 01:02:00,70.0,47.0,-100.00,West,281,1.0,5.0,44,0.00,,,-99.99,23.000000,,2013-04-10 01:02:00,
2013-04-10 01:11:00,69.0,48.0,-100.00,NNW,336,2.0,6.0,48,0.00,,,0.00,0.000000,,2013-04-10 01:11:00,
2013-04-10 01:33:00,69.0,48.0,-100.00,NNW,336,2.0,6.0,48,0.00,,,0.00,0.000000,,2013-04-10 01:33:00,
2013-04-10 01:43:00,69.0,48.0,-100.00,NNW,336,2.0,6.0,48,0.00,,,0.00,0.000000,,2013-04-10 01:43:00,
2013-04-10 01:53:00,69.0,48.0,-100.00,NNW,336,2.0,6.0,48,0.00,,,0.00,0.000000,,2013-04-10 01:53:00,
2013-04-10 02:03:00,69.0,48.0,-100.00,NNW,336,2.0,6.0,48,0.00,,,0.00,0.000000,,2013-04-10 02:03:00,
2013-04-10 02:11:00,68.0,50.0,-100.00,ENE,66,4.0,9.0,53,0.00,,,0.00,0.000000,,2013-04-10 02:11:00,
2013-04-10 02:33:00,68.0,50.0,-100.00,ENE,66,4.0,9.0,53,0.00,,,0.00,0.000000,,2013-04-10 02:33:00,
2013-04-10 02:43:00,68.0,50.0,-100.00,ENE,66,4.0,9.0,53,0.00,,,0.00,0.000000,,2013-04-10 02:43:00,
2013-04-10 02:53:00,68.0,50.0,-100.00,ENE,66,4.0,9.0,53,0.00,,,0.00,0.000000,,2013-04-10 02:53:00,
2013-04-10 03:03:00,68.0,50.0,-100.00,ENE,66,4.0,9.0,53,0.00,,,0.00,0.000000,,2013-04-10 03:03:00,
2013-04-10 03:11:00,65.0,50.0,-100.00,North,9,2.0,6.0,59,0.00,,,0.00,0.000000,,2013-04-10 03:11:00,
2013-04-10 03:43:00,65.0,50.0,-100.00,North,9,2.0,6.0,59,0.00,,,0.00,0.000000,,2013-04-10 03:43:00,
2013-04-10 03:53:00,65.0,50.0,-100.00,North,9,2.0,6.0,59,0.00,,,0.00,0.000000,,2013-04-10 03:53:00,
2013-04-10 04:03:00,65.0,50.0,-100.00,North,9,2.0,6.0,59,0.00,,,0.00,0.000000,,2013-04-10 04:03:00,
2013-04-10 04:11:00,65.0,49.0,-100.00,NE,51,3.0,10.0,57,0.00,,,0.00,0.000000,,2013-04-10 04:11:00,
2013-04-10 04:43:00,65.0,49.0,-100.00,NE,51,3.0,10.0,57,0.00,,,0.00,0.000000,,2013-04-10 04:43:00,
2013-04-10 04:53:00,65.0,49.0,-100.00,NE,51,3.0,10.0,57,0.00,,,0.00,0.000000,,2013-04-10 04:53:00,
2013-04-10 05:03:00,65.0,49.0,-100.00,NE,51,3.0,10.0,57,0.00,,,0.00,0.000000,,2013-04-10 05:03:00,
2013-04-10 05:11:00,66.0,51.0,-100.00,ENE,71,4.0,10.0,58,0.00,,,0.00,0.000000,,2013-04-10 05:11:00,
2013-04-10 05:33:00,66.0,51.0,-100.00,ENE,71,4.0,10.0,58,0.00,,,0.00,0.000000,,2013-04-10 05:33:00,
2013-04-10 05:43:00,66.0,51.0,-100.00,ENE,71,4.0,10.0,58,0.00,,,0.00,0.000000,,2013-04-10 05:43:00,
2013-04-10 05:53:00,66.0,51.0,-100.00,ENE,71,4.0,10.0,58,0.00,,,0.00,0.000000,,2013-04-10 05:53:00,
2013-04-10 06:03:00,66.0,51.0,-100.00,ENE,71,4.0,10.0,58,0.00,,,0.00,0.000000,,2013-04-10 06:03:00,
2013-04-10 06:11:00,65.0,50.0,-100.00,NE,56,4.0,12.0,58,0.00,,,0.00,0.000000,,2013-04-10 06:11:00,
2013-04-10 06:43:00,65.0,50.0,-100.00,NE,56,4.0,12.0,58,0.00,,,0.00,0.000000,,2013-04-10 06:43:00,
2013-04-10 06:52:00,65.0,50.0,-100.00,NE,56,4.0,12.0,58,0.00,,,0.00,0.000000,,2013-04-10 06:52:00,
2013-04-10 07:02:00,65.0,50.0,-100.00,NE,56,4.0,12.0,58,0.00,,,0.00,0.000000,,2013-04-10 07:02:00,
2013-04-10 07:11:00,64.0,49.0,-100.00,NNE,33,3.0,10.0,59,0.00,,,0.00,0.000000,,2013-04-10 07:11:00,
2013-04-10 07:43:00,64.0,49.0,-100.00,NNE,33,3.0,10.0,59,0.00,,,0.00,0.000000,,2013-04-10 07:43:00,
2013-04-10 07:52:00,64.0,49.0,-100.00,NNE,33,3.0,10.0,59,0.00,,,0.00,0.000000,,2013-04-10 07:52:00,
2013-04-10 08:02:00,64.0,49.0,-100.00,NNE,33,3.0,10.0,59,0.00,,,0.00,0.000000,,2013-04-10 08:02:00,
2013-04-10 08:11:00,62.0,50.0,-100.00,NNW,332,2.0,8.0,64,0.00,,,0.00,0.000000,,2013-04-10 08:11:00,
2013-04-10 08:43:00,62.0,50.0,-100.00,NNW,332,2.0,8.0,64,0.00,,,0.00,0.000000,,2013-04-10 08:43:00,
2013-04-10 08:52:00,62.0,50.0,-100.00,NNW,332,2.0,8.0,64,0.00,,,0.00,0.000000,,2013-04-10 08:52:00,
2013-04-10 09:02:00,62.0,50.0,-100.00,NNW,332,2.0,8.0,64,0.00,,,0.00,0.000000,,2013-04-10 09:02:00,
2013-04-10 09:11:00,61.0,50.0,-100.00,NW,323,1.0,4.0,66,0.00,,,0.00,0.000000,,2013-04-10 09:11:00,
2013-04-10 09:43:00,61.0,50.0,-100.00,NW,323,1.0,4.0,66,0.00,,,0.00,0.000000,,2013-04-10 09:43:00,
2013-04-10 09:53:00,61.0,50.0,-100.00,NW,323,1.0,4.0,66,0.00,,,0.00,0.000000,,2013-04-10 09:53:00,
2013-04-10 10:03:00,61.0,50.0,-100.00,NW,323,1.0,4.0,66,0.00,,,0.00,0.000000,,2013-04-10 10:03:00,
2013-04-10 10:11:00,58.0,49.0,-100.00,WNW,297,2.0,5.0,72,0.00,,,0.00,0.000000,,2013-04-10 10:11:00,
2013-04-10 10:33:00,58.0,49.0,-100.00,WNW,297,2.0,5.0,72,0.00,,,0.00,0.000000,,2013-04-10 10:33:00,
2013-04-10 10:43:00,58.0,49.0,-100.00,WNW,297,2.0,5.0,72,0.00,,,0.00,0.000000,,2013-04-10 10:43:00,
2013-04-10 10:53:00,58.0,49.0,-100.00,WNW,297,2.0,5.0,72,0.00,,,0.00,0.000000,,2013-04-10 10:53:00,
2013-04-10 11:03:00,58.0,49.0,-100.00,WNW,297,2.0,5.0,72,0.00,,,0.00,0.000000,,2013-04-10 11:03:00,
2013-04-10 13:11:00,70.0,53.0,-100.00,NNW,336,2.0,4.0,55,-99.99,,,0.00,326.000000,,2013-04-10 13:11:00,
2013-04-10 13:33:00,70.0,53.0,-100.00,NNW,336,2.0,4.0,55,-99.99,,,0.00,326.000000,,2013-04-10 13:33:00,
2013-04-10 13:43:00,70.0,53.0,-100.00,NNW,336,2.0,4.0,55,-99.99,,,0.00,326.000000,,2013-04-10 13:43:00,
2013-04-10 13:53:00,70.0,53.0,-100.00,NNW,336,2.0,4.0,55,-99.99,,,0.00,326.000000,,2013-04-10 13:53:00,
2013-04-10 14:02:00,70.0,53.0,-100.00,NNW,336,2.0,4.0,55,-99.99,,,0.00,326.000000,,2013-04-10 14:02:00,
2013-04-10 14:11:00,72.0,53.0,-100.00,NNE,23,5.0,11.0,51,0.00,,,0.00,581.000000,,2013-04-10 14:11:00,
2013-04-10 14:33:00,72.0,53.0,-100.00,NNE,23,5.0,11.0,51,0.00,,,0.00,581.000000,,2013-04-10 14:33:00,
2013-04-10 14:42:00,72.0,53.0,-100.00,NNE,23,5.0,11.0,51,0.00,,,0.00,581.000000,,2013-04-10 14:42:00,
2013-04-10 14:52:00,72.0,53.0,-100.00,NNE,23,5.0,11.0,51,0.00,,,0.00,581.000000,,2013-04-10 14:52:00,
2013-04-10 15:03:00,72.0,53.0,-100.00,NNE,23,5.0,11.0,51,0.00,,,0.00,581.000000,,2013-04-10 15:03:00,
2013-04-10 16:11:00,76.0,54.0,-100.00,NE,54,5.0,16.0,47,-99.99,,,0.00,964.000000,,2013-04-10 16:11:00,
2013-04-10 16:33:00,76.0,54.0,-100.00,NE,54,5.0,16.0,47,-99.99,,,0.00,964.000000,,2013-04-10 16:33:00,
2013-04-10 16:43:00,76.0,54.0,-100.00,NE,54,5.0,16.0,47,-99.99,,,0.00,964.000000,,2013-04-10 16:43:00,
2013-04-10 16:53:00,76.0,54.0,-100.00,NE,54,5.0,16.0,47,-99.99,,,0.00,964.000000,,2013-04-10 16:53:00,
2013-04-10 17:03:00,76.0,54.0,-100.00,NE,54,5.0,16.0,47,-99.99,,,0.00,964.000000,,2013-04-10 17:03:00,
2013-04-10 17:11:00,77.0,53.0,-100.00,ENE,60,6.0,10.0,44,0.00,,,0.00,1059.000000,,2013-04-10 17:11:00,
2013-04-10 17:34:00,77.0,53.0,-100.00,ENE,60,6.0,10.0,44,0.00,,,0.00,1059.000000,,2013-04-10 17:34:00,
2013-04-10 17:43:00,77.0,53.0,-100.00,ENE,60,6.0,10.0,44,0.00,,,0.00,1059.000000,,2013-04-10 17:43:00,
2013-04-10 17:53:00,77.0,53.0,-100.00,ENE,60,6.0,10.0,44,0.00,,,0.00,1059.000000,,2013-04-10 17:53:00,
2013-04-10 18:03:00,77.0,53.0,-100.00,ENE,60,6.0,10.0,44,0.00,,,0.00,1059.000000,,2013-04-10 18:03:00,
2013-04-10 18:11:00,79.0,53.0,-100.00,NE,50,7.0,13.0,41,0.00,,,0.00,1081.000000,,2013-04-10 18:11:00,
2013-04-10 18:43:00,79.0,53.0,-100.00,NE,50,7.0,13.0,41,0.00,,,0.00,1081.000000,,2013-04-10 18:43:00,
2013-04-10 18:53:00,79.0,53.0,-100.00,NE,50,7.0,13.0,41,0.00,,,0.00,1081.000000,,2013-04-10 18:53:00,
2013-04-10 19:03:00,79.0,53.0,-100.00,NE,50,7.0,13.0,41,0.00,,,0.00,1081.000000,,2013-04-10 19:03:00,
2013-04-10 19:11:00,81.0,52.0,-100.00,ENE,68,7.0,15.0,36,0.00,,,0.00,1053.000000,,2013-04-10 19:11:00,
2013-04-10 19:42:00,81.0,52.0,-100.00,ENE,68,7.0,15.0,36,0.00,,,0.00,1053.000000,,2013-04-10 19:42:00,
2013-04-10 19:53:00,81.0,52.0,-100.00,ENE,68,7.0,15.0,36,0.00,,,0.00,1053.000000,,2013-04-10 19:53:00,
2013-04-10 20:03:00,81.0,52.0,-100.00,ENE,68,7.0,15.0,36,0.00,,,0.00,1053.000000,,2013-04-10 20:03:00,
2013-04-10 20:11:00,81.0,50.0,-100.00,ENE,69,6.0,12.0,34,0.00,,,0.00,912.000000,,2013-04-10 20:11:00,
2013-04-10 20:43:00,81.0,50.0,-100.00,ENE,69,6.0,12.0,34,0.00,,,0.00,912.000000,,2013-04-10 20:43:00,
2013-04-10 20:53:00,81.0,50.0,-100.00,ENE,69,6.0,12.0,34,0.00,,,0.00,912.000000,,2013-04-10 20:53:00,
2013-04-10 21:03:00,81.0,50.0,-100.00,ENE,69,6.0,12.0,34,0.00,,,0.00,912.000000,,2013-04-10 21:03:00,
2013-04-10 21:11:00,80.0,48.0,-100.00,ENE,66,5.0,11.0,33,0.00,,,0.00,712.000000,,2013-04-10 21:11:00,
2013-04-10 21:43:00,80.0,48.0,-100.00,ENE,66,5.0,11.0,33,0.00,,,0.00,712.000000,,2013-04-10 21:43:00,
2013-04-10 21:53:00,80.0,48.0,-100.00,ENE,66,5.0,11.0,33,0.00,,,0.00,712.000000,,2013-04-10 21:53:00,
2013-04-10 22:03:00,80.0,48.0,-100.00,ENE,66,5.0,11.0,33,0.00,,,0.00,712.000000,,2013-04-10 22:03:00,
2013-04-10 22:11:00,78.0,45.0,-100.00,ENE,72,5.0,13.0,31,0.00,,,0.00,236.000000,,2013-04-10 22:11:00,
2013-04-10 22:34:00,78.0,45.0,-100.00,ENE,72,5.0,13.0,31,0.00,,,0.00,236.000000,,2013-04-10 22:34:00,
2013-04-10 22:43:00,78.0,45.0,-100.00,ENE,72,5.0,13.0,31,0.00,,,0.00,236.000000,,2013-04-10 22:43:00,
2013-04-10 22:53:00,78.0,45.0,-100.00,ENE,72,5.0,13.0,31,0.00,,,0.00,236.000000,,2013-04-10 22:53:00,
2013-04-10 23:03:00,78.0,45.0,-100.00,ENE,72,5.0,13.0,31,0.00,,,0.00,236.000000,,2013-04-10 23:03:00,
2013-04-10 23:11:00,76.0,46.0,-100.00,NE,49,4.0,10.0,34,0.00,,,0.00,54.000000,,2013-04-10 23:11:00,
2013-04-10 23:33:00,76.0,46.0,-100.00,NE,49,4.0,10.0,34,0.00,,,0.00,54.000000,,2013-04-10 23:33:00,
2013-04-10 23:43:00,76.0,46.0,-100.00,NE,49,4.0,10.0,34,0.00,,,0.00,54.000000,,2013-04-10 23:43:00,
2013-04-10 23:53:00,76.0,46.0,-100.00,NE,49,4.0,10.0,34,0.00,,,0.00,54.000000,,2013-04-10 23:53:00,